createdAt,value
2022-11-23T00:01:14.769Z,7.93
2022-11-23T00:03:43.120Z,6.93
2022-11-23T00:06:11.454Z,9.23
2022-11-23T00:08:39.846Z,7.82
2022-11-23T00:11:08.232Z,8.20
2022-11-23T00:13:36.971Z,10.95
2022-11-23T00:16:07.154Z,9.63
2022-11-23T00:18:36.939Z,9.30
2022-11-23T00:21:09.600Z,11.10
2022-11-23T00:23:38.023Z,10.20
2022-11-23T00:26:07.507Z,7.70
2022-11-23T00:28:40.701Z,11.77
2022-11-23T00:31:11.442Z,8.88
2022-11-23T00:33:41.548Z,7.10
2022-11-23T00:36:13.418Z,7.68
2022-11-23T00:38:42.345Z,7.80
2022-11-23T00:41:12.549Z,14.27
2022-11-23T00:43:42.487Z,7.13
2022-11-23T00:46:15.460Z,8.23
2022-11-23T00:48:45.761Z,9.55
2022-11-23T00:51:16.624Z,8.02
2022-11-23T00:53:45.574Z,9.52
2022-11-23T00:56:14.448Z,7.22
2022-11-23T00:58:42.857Z,10.38
2022-11-23T01:01:15.941Z,8.93
2022-11-23T01:03:47.890Z,8.85
2022-11-23T01:06:17.917Z,7.07
2022-11-23T01:08:50.641Z,8.60
2022-11-23T01:11:19.224Z,7.35
2022-11-23T01:13:47.858Z,10.60
2022-11-23T01:16:23.575Z,7.25
2022-11-23T01:18:55.438Z,10.95
2022-11-23T01:21:25.647Z,9.35
2022-11-23T01:23:54.153Z,9.30
2022-11-23T01:26:22.805Z,8.45
2022-11-23T01:28:51.580Z,9.20
2022-11-23T01:31:21.484Z,8.23
2022-11-23T01:33:55.401Z,8.02
2022-11-23T01:36:24.722Z,10.00
2022-11-23T01:38:53.077Z,7.90
2022-11-23T01:41:27.193Z,6.78
2022-11-23T01:43:55.917Z,7.95
2022-11-23T01:46:24.300Z,7.60
2022-11-23T01:48:56.835Z,8.13
2022-11-23T01:51:28.753Z,12.68
2022-11-23T01:54:00.762Z,8.13
2022-11-23T01:56:32.209Z,6.72
2022-11-23T01:59:02.358Z,6.82
2022-11-23T02:01:30.797Z,6.65
2022-11-23T02:04:02.546Z,7.90
2022-11-23T02:06:31.663Z,7.13
2022-11-23T02:09:03.532Z,11.70
2022-11-23T02:11:31.919Z,5.55
2022-11-23T02:14:00.401Z,6.15
2022-11-23T02:16:31.673Z,7.35
2022-11-23T02:19:01.588Z,2.95
2022-11-23T02:21:29.998Z,6.05
2022-11-23T02:24:03.129Z,6.78
2022-11-23T02:26:34.705Z,9.27
2022-11-23T02:29:07.665Z,6.20
2022-11-23T02:31:36.198Z,5.68
2022-11-23T02:34:04.628Z,5.95
2022-11-23T02:36:39.218Z,7.22
2022-11-23T02:39:11.262Z,5.32
2022-11-23T02:41:44.190Z,6.32
2022-11-23T02:44:23.530Z,6.78
2022-11-23T02:46:52.290Z,5.82
2022-11-23T02:49:20.745Z,5.55
2022-11-23T02:51:51.240Z,6.03
2022-11-23T02:54:19.621Z,5.82
2022-11-23T02:56:49.315Z,7.07
2022-11-23T02:59:19.199Z,5.68
2022-11-23T03:01:47.809Z,4.95
2022-11-23T03:04:16.275Z,8.80
2022-11-23T03:06:46.227Z,8.07
2022-11-23T03:09:14.939Z,7.47
2022-11-23T03:11:43.500Z,4.93
2022-11-23T03:14:13.492Z,6.32
2022-11-23T03:16:50.977Z,7.68
2022-11-23T03:19:20.515Z,7.22
2022-11-23T03:21:50.149Z,7.57
2022-11-23T03:24:18.543Z,6.40
2022-11-23T03:26:48.383Z,5.88
2022-11-23T03:29:26.357Z,5.93
2022-11-23T03:31:56.084Z,7.03
2022-11-23T03:34:24.789Z,7.25
2022-11-23T03:36:53.314Z,7.68
2022-11-23T03:39:21.992Z,6.32
2022-11-23T03:42:08.569Z,7.35
2022-11-23T03:44:38.852Z,10.88
2022-11-23T03:47:07.218Z,5.00
2022-11-23T03:49:37.189Z,6.85
2022-11-23T03:52:06.167Z,6.30
2022-11-23T03:54:34.469Z,7.13
2022-11-23T03:57:02.839Z,5.65
2022-11-23T03:59:31.477Z,5.93
2022-11-23T04:02:01.382Z,4.43
2022-11-23T04:04:34.634Z,3.15
2022-11-23T04:07:10.374Z,4.03
2022-11-23T04:09:52.184Z,5.18
2022-11-23T04:12:52.510Z,4.03
2022-11-23T04:15:20.815Z,4.97
2022-11-23T04:17:50.529Z,5.90
2022-11-23T04:20:19.054Z,4.38
2022-11-23T04:22:47.389Z,3.13
2022-11-23T04:25:16.274Z,4.38
2022-11-23T04:27:44.592Z,4.97
2022-11-23T04:30:14.201Z,2.00
2022-11-23T04:32:42.565Z,5.35
2022-11-23T04:35:12.889Z,3.55
2022-11-23T04:37:43.360Z,6.28
2022-11-23T04:40:13.460Z,3.25
2022-11-23T04:42:45.385Z,4.15
2022-11-23T04:45:13.867Z,3.90
2022-11-23T04:47:42.909Z,4.25
2022-11-23T04:50:17.081Z,4.13
2022-11-23T04:52:50.667Z,7.68
2022-11-23T04:55:23.502Z,2.75
2022-11-23T04:57:58.419Z,5.30
2022-11-23T05:00:30.608Z,5.95
2022-11-23T05:03:01.408Z,5.40
2022-11-23T05:05:34.443Z,5.22
2022-11-23T05:08:04.302Z,4.43
2022-11-23T05:10:53.801Z,6.05
2022-11-23T05:13:22.089Z,6.28
2022-11-23T05:15:51.634Z,6.75
2022-11-23T05:18:26.130Z,6.35
2022-11-23T05:20:56.454Z,10.05
2022-11-23T05:23:24.741Z,6.72
2022-11-23T05:25:55.033Z,6.03
2022-11-23T05:28:39.791Z,4.53
2022-11-23T05:31:10.595Z,6.10
2022-11-23T05:33:38.951Z,5.82
2022-11-23T05:36:14.010Z,6.38
2022-11-23T05:38:43.574Z,5.50
2022-11-23T05:41:20.972Z,6.32
2022-11-23T05:43:52.297Z,4.13
2022-11-23T05:46:25.265Z,5.15
2022-11-23T05:48:53.692Z,4.63
2022-11-23T05:51:23.460Z,6.85
2022-11-23T05:53:52.405Z,6.82
2022-11-23T05:56:40.319Z,3.85
2022-11-23T05:59:21.175Z,7.97
2022-11-23T06:01:54.413Z,10.25
2022-11-23T06:04:31.085Z,4.05
2022-11-23T06:07:02.084Z,6.88
2022-11-23T06:09:44.809Z,7.18
2022-11-23T06:12:13.565Z,4.40
2022-11-23T06:14:41.876Z,3.50
2022-11-23T06:17:10.264Z,3.25
2022-11-23T06:19:44.013Z,3.45
2022-11-23T06:22:15.623Z,3.03
2022-11-23T06:24:55.960Z,5.88
2022-11-23T06:27:41.529Z,4.05
2022-11-23T06:30:17.685Z,10.25
2022-11-23T06:32:46.430Z,3.97
2022-11-23T06:35:15.258Z,7.30
2022-11-23T06:37:46.772Z,4.70
2022-11-23T06:40:15.107Z,2.53
2022-11-23T06:42:44.495Z,2.13
2022-11-23T06:45:19.489Z,3.20
2022-11-23T06:47:50.062Z,3.15
2022-11-23T06:50:18.947Z,3.33
2022-11-23T06:52:50.229Z,7.25
2022-11-23T06:55:19.711Z,3.60
2022-11-23T06:57:48.394Z,5.55
2022-11-23T07:00:17.743Z,3.92
2022-11-23T07:02:50.438Z,2.95
2022-11-23T07:05:19.214Z,3.63
2022-11-23T07:07:49.755Z,3.72
2022-11-23T07:10:25.871Z,6.38
2022-11-23T07:13:05.820Z,3.13
2022-11-23T07:15:35.131Z,5.75
2022-11-23T07:18:03.641Z,6.97
2022-11-23T07:20:33.043Z,5.25
2022-11-23T07:23:03.385Z,5.45
2022-11-23T07:25:32.609Z,4.47
2022-11-23T07:28:02.741Z,8.95
2022-11-23T07:30:32.424Z,5.78
2022-11-23T07:33:02.687Z,7.70
2022-11-23T07:35:32.885Z,9.90
2022-11-23T07:38:02.759Z,8.82
2022-11-23T07:40:31.107Z,8.48
2022-11-23T07:43:02.858Z,7.97
2022-11-23T07:45:31.754Z,16.38
2022-11-23T07:48:01.953Z,10.60
2022-11-23T07:50:30.739Z,7.18
2022-11-23T07:52:59.033Z,7.28
2022-11-23T07:55:28.738Z,10.25
2022-11-23T07:57:57.031Z,9.00
2022-11-23T08:00:26.470Z,5.00
2022-11-23T08:03:25.561Z,4.32
2022-11-23T08:05:43.216Z,4.55
2022-11-23T08:08:11.984Z,6.57
2022-11-23T08:10:46.066Z,7.35
2022-11-23T08:13:15.666Z,9.75
2022-11-23T08:15:45.653Z,3.67
2022-11-23T08:18:17.146Z,5.70
2022-11-23T08:20:45.457Z,5.82
2022-11-23T08:23:13.753Z,8.60
2022-11-23T08:25:43.501Z,4.55
2022-11-23T08:28:12.070Z,3.83
2022-11-23T08:30:40.598Z,7.43
2022-11-23T08:33:09.826Z,4.57
2022-11-23T08:35:39.382Z,6.53
2022-11-23T08:38:10.313Z,9.75
2022-11-23T08:40:39.167Z,8.93
2022-11-23T08:43:11.397Z,6.53
2022-11-23T08:45:39.709Z,7.25
2022-11-23T08:48:08.911Z,3.75
2022-11-23T08:50:37.535Z,12.05
2022-11-23T08:53:06.020Z,9.77
2022-11-23T08:55:34.339Z,6.40
2022-11-23T08:58:02.637Z,4.35
2022-11-23T09:00:32.606Z,8.35
2022-11-23T09:03:01.059Z,6.60
2022-11-23T09:05:30.934Z,6.60
2022-11-23T09:08:01.409Z,5.90
2022-11-23T09:10:30.083Z,6.40
2022-11-23T09:12:58.985Z,7.45
2022-11-23T09:15:27.318Z,8.85
2022-11-23T09:17:57.848Z,3.40
2022-11-23T09:20:26.275Z,8.45
2022-11-23T09:22:56.074Z,6.38
2022-11-23T09:25:24.563Z,9.55
2022-11-23T09:27:58.625Z,6.85
2022-11-23T09:30:27.355Z,5.00
2022-11-23T09:32:58.411Z,2.33
2022-11-23T09:35:26.918Z,4.32
2022-11-23T09:37:58.597Z,6.30
2022-11-23T09:40:30.325Z,6.32
2022-11-23T09:43:26.445Z,7.95
2022-11-23T09:45:55.943Z,4.60
2022-11-23T09:48:43.655Z,4.50
2022-11-23T09:51:17.333Z,6.32
2022-11-23T09:53:48.537Z,5.38
2022-11-23T09:56:20.086Z,4.75
2022-11-23T09:58:48.714Z,5.35
2022-11-23T10:01:17.525Z,5.38
2022-11-23T10:03:49.343Z,6.10
2022-11-23T10:06:20.674Z,7.18
2022-11-23T10:08:59.146Z,5.15
2022-11-23T10:12:06.022Z,3.88
2022-11-23T10:14:47.084Z,7.03
2022-11-23T10:17:22.169Z,4.30
2022-11-23T10:20:02.518Z,5.72
2022-11-23T10:22:37.179Z,6.75
2022-11-23T10:25:15.826Z,6.05
2022-11-23T10:27:45.998Z,7.93
2022-11-23T10:30:15.899Z,6.88
2022-11-23T10:32:48.512Z,11.88
2022-11-23T10:35:20.265Z,6.13
2022-11-23T10:37:50.467Z,9.57
2022-11-23T10:40:24.702Z,9.38
2022-11-23T10:42:55.878Z,4.72
2022-11-23T10:45:26.377Z,6.72
2022-11-23T10:47:56.189Z,7.00
2022-11-23T10:50:30.080Z,10.30
2022-11-23T10:53:00.940Z,9.97
2022-11-23T10:55:31.143Z,8.43
2022-11-23T10:57:59.744Z,11.18
2022-11-23T11:00:31.280Z,10.25
2022-11-23T11:03:00.633Z,8.13
2022-11-23T11:06:07.586Z,8.23
2022-11-23T11:08:22.676Z,6.15
2022-11-23T11:10:52.171Z,9.05
2022-11-23T11:13:31.073Z,5.55
2022-11-23T11:16:00.965Z,4.80
2022-11-23T11:18:31.841Z,4.10
2022-11-23T11:21:04.506Z,5.15
2022-11-23T11:23:33.243Z,4.97
2022-11-23T11:26:07.455Z,6.80
2022-11-23T11:28:38.230Z,5.18
2022-11-23T11:31:20.668Z,3.50
2022-11-23T11:33:53.807Z,7.38
2022-11-23T11:36:23.775Z,5.82
2022-11-23T11:39:17.077Z,6.70
2022-11-23T11:41:44.470Z,5.50
2022-11-23T11:44:18.605Z,4.80
2022-11-23T11:46:50.508Z,9.02
2022-11-23T11:49:23.019Z,7.35
2022-11-23T11:51:55.989Z,6.13
2022-11-23T11:54:29.521Z,5.90
2022-11-23T11:57:02.155Z,6.35
2022-11-23T11:59:32.250Z,8.77
2022-11-23T12:02:08.834Z,7.60
2022-11-23T12:04:41.638Z,2.85
2022-11-23T12:07:15.405Z,3.95
2022-11-23T12:09:46.310Z,5.80
2022-11-23T12:12:17.459Z,6.80
2022-11-23T12:14:47.067Z,4.90
2022-11-23T12:17:33.839Z,6.30
2022-11-23T12:20:09.062Z,3.63
2022-11-23T12:22:46.157Z,7.57
2022-11-23T12:25:22.415Z,7.28
2022-11-23T12:28:00.661Z,6.43
2022-11-23T12:30:36.239Z,5.03
2022-11-23T12:33:22.352Z,7.03
2022-11-23T12:36:01.272Z,9.18
2022-11-23T12:38:37.265Z,4.88
2022-11-23T12:41:16.571Z,4.15
2022-11-23T12:43:54.078Z,6.45
2022-11-23T12:46:27.555Z,7.75
2022-11-23T12:49:07.737Z,10.05
2022-11-23T12:51:40.733Z,5.93
2022-11-23T12:54:22.519Z,6.05
2022-11-23T12:57:08.081Z,5.47
2022-11-23T12:59:43.649Z,8.25
2022-11-23T13:02:18.606Z,7.03
2022-11-23T13:05:08.363Z,4.95
2022-11-23T13:07:50.352Z,9.05
2022-11-23T13:10:44.457Z,6.60
2022-11-23T13:13:28.078Z,3.83
2022-11-23T13:16:15.451Z,11.00
2022-11-23T13:18:58.933Z,8.82
2022-11-23T13:21:36.286Z,6.35
2022-11-23T13:24:05.020Z,5.38
2022-11-23T13:26:34.703Z,8.57
2022-11-23T13:29:37.866Z,4.97
2022-11-23T13:32:36.305Z,2.95
2022-11-23T13:35:04.959Z,4.07
2022-11-23T13:38:08.101Z,4.03
2022-11-23T13:40:37.754Z,2.42
2022-11-23T13:43:17.431Z,4.72
2022-11-23T13:45:46.295Z,3.28
2022-11-23T13:48:48.924Z,3.90
2022-11-23T13:51:07.243Z,2.33
2022-11-23T13:53:36.537Z,3.22
2022-11-23T13:56:36.995Z,4.07
2022-11-23T13:59:32.413Z,5.03
2022-11-23T14:02:30.514Z,3.42
2022-11-23T14:05:35.710Z,5.55
2022-11-23T14:08:05.276Z,2.90
2022-11-23T14:10:33.885Z,6.38
2022-11-23T14:13:05.722Z,4.72
2022-11-23T14:15:37.098Z,5.10
2022-11-23T14:18:17.754Z,4.85
2022-11-23T14:21:03.179Z,3.40
2022-11-23T14:24:11.207Z,4.38
2022-11-23T14:26:49.410Z,3.42
2022-11-23T14:29:30.475Z,3.40
2022-11-23T14:32:13.880Z,4.78
2022-11-23T14:34:51.257Z,3.72
2022-11-23T14:37:27.190Z,4.07
2022-11-23T14:40:19.169Z,4.72
2022-11-23T14:42:53.545Z,8.07
2022-11-23T14:45:23.113Z,7.25
2022-11-23T14:47:52.978Z,5.28
2022-11-23T14:50:26.135Z,6.50
2022-11-23T14:52:55.375Z,7.55
2022-11-23T14:55:25.277Z,6.57
2022-11-23T14:57:56.875Z,11.93
2022-11-23T15:00:31.965Z,3.97
2022-11-23T15:03:42.119Z,9.25
2022-11-23T15:06:02.956Z,7.53
2022-11-23T15:08:33.329Z,3.97
2022-11-23T15:11:04.505Z,4.93
2022-11-23T15:13:46.986Z,6.90
2022-11-23T15:16:17.146Z,8.65
2022-11-23T15:18:47.566Z,9.13
2022-11-23T15:21:26.634Z,13.00
2022-11-23T15:23:57.556Z,10.77
2022-11-23T15:26:47.587Z,9.82
2022-11-23T15:29:34.488Z,9.05
2022-11-23T15:34:55.359Z,10.68
2022-11-23T15:37:24.356Z,12.13
2022-11-23T15:39:53.918Z,10.02
2022-11-23T15:42:33.917Z,9.57
2022-11-23T15:45:02.306Z,4.50
2022-11-23T15:47:32.175Z,3.45
2022-11-23T15:50:04.123Z,6.35
2022-11-23T15:52:36.008Z,6.95
2022-11-23T15:55:09.727Z,3.55
2022-11-23T15:57:39.658Z,7.00
2022-11-23T16:00:10.275Z,8.63
2022-11-23T16:02:41.731Z,6.32
2022-11-23T16:05:15.922Z,5.07
2022-11-23T16:07:54.910Z,4.57
2022-11-23T16:10:25.997Z,5.05
2022-11-23T16:12:55.490Z,5.22
2022-11-23T16:15:44.187Z,5.00
2022-11-23T16:18:24.900Z,7.45
2022-11-23T16:20:56.482Z,6.22
2022-11-23T16:23:26.972Z,7.57
2022-11-23T16:25:56.961Z,11.50
2022-11-23T16:28:29.744Z,5.10
2022-11-23T16:30:58.686Z,11.45
2022-11-23T16:33:27.169Z,8.90
2022-11-23T16:35:56.926Z,11.98
2022-11-23T16:38:28.512Z,8.48
2022-11-23T16:40:57.172Z,15.90
2022-11-23T16:43:25.594Z,9.40
2022-11-23T16:45:53.993Z,13.50
2022-11-23T16:48:46.298Z,20.23
2022-11-23T16:51:16.184Z,9.13
2022-11-23T16:56:34.177Z,13.40
2022-11-23T16:59:02.576Z,10.35
2022-11-23T17:01:32.689Z,14.32
2022-11-23T17:04:01.218Z,7.82
2022-11-23T17:06:31.092Z,8.02
2022-11-23T17:09:06.412Z,9.95
2022-11-23T17:11:39.555Z,14.65
2022-11-23T17:14:08.180Z,19.67
2022-11-23T17:16:36.654Z,15.23
2022-11-23T17:19:05.164Z,13.75
2022-11-23T17:21:34.828Z,13.73
2022-11-23T17:24:04.048Z,11.73
2022-11-23T17:26:34.964Z,16.17
2022-11-23T17:29:04.910Z,12.90
2022-11-23T17:31:33.349Z,16.85
2022-11-23T17:34:02.405Z,17.05
2022-11-23T17:36:31.476Z,11.05
2022-11-23T17:39:01.210Z,19.52
2022-11-23T17:41:29.604Z,18.02
2022-11-23T17:43:59.446Z,12.98
2022-11-23T17:46:28.406Z,19.23
2022-11-23T17:48:58.363Z,21.23
2022-11-23T17:51:28.366Z,14.02
2022-11-23T17:53:57.007Z,13.90
2022-11-23T17:56:26.935Z,19.52
2022-11-23T17:58:55.291Z,15.13
2022-11-23T18:01:24.116Z,8.10
2022-11-23T18:03:52.601Z,8.80
2022-11-23T18:06:22.088Z,14.90
2022-11-23T18:08:51.165Z,8.77
2022-11-23T18:11:19.946Z,10.10
2022-11-23T18:13:50.683Z,10.85
2022-11-23T18:16:20.535Z,17.02
2022-11-23T18:18:49.203Z,10.63
2022-11-23T18:21:17.820Z,12.18
2022-11-23T18:23:46.166Z,13.30
2022-11-23T18:26:17.546Z,8.95
2022-11-23T18:28:45.934Z,12.20
2022-11-23T18:31:17.267Z,8.98
2022-11-23T18:33:46.009Z,7.97
2022-11-23T18:36:14.838Z,12.23
2022-11-23T18:38:44.991Z,10.75
2022-11-23T18:41:13.772Z,10.30
2022-11-23T18:43:42.115Z,11.25
2022-11-23T18:46:11.558Z,14.13
2022-11-23T18:48:41.416Z,12.90
2022-11-23T18:51:11.916Z,10.52
2022-11-23T18:53:41.256Z,14.55
2022-11-23T18:56:10.620Z,13.63
2022-11-23T18:58:40.774Z,12.45
2022-11-23T19:01:12.672Z,11.50
2022-11-23T19:03:43.449Z,9.88
2022-11-23T19:06:17.225Z,16.65
2022-11-23T19:08:46.897Z,18.70
2022-11-23T19:11:18.044Z,27.90
2022-11-23T19:13:48.214Z,10.05
2022-11-23T19:16:18.097Z,16.20
2022-11-23T19:18:47.912Z,14.60
2022-11-23T19:21:17.568Z,14.43
2022-11-23T19:23:49.194Z,11.75
2022-11-23T19:26:17.596Z,8.93
2022-11-23T19:28:46.095Z,16.02
2022-11-23T19:31:15.856Z,13.02
2022-11-23T19:33:44.728Z,10.85
2022-11-23T19:36:15.930Z,12.77
2022-11-23T19:38:44.596Z,16.88
2022-11-23T19:41:13.327Z,16.73
2022-11-23T19:43:42.921Z,11.98
2022-11-23T19:46:13.982Z,9.73
2022-11-23T19:48:42.454Z,14.32
2022-11-23T19:51:14.773Z,7.82
2022-11-23T19:53:43.964Z,10.65
2022-11-23T19:56:13.731Z,13.38
2022-11-23T19:58:42.894Z,15.45
2022-11-23T20:01:12.880Z,11.65
2022-11-23T20:03:42.671Z,15.55
2022-11-23T20:06:15.975Z,12.95
2022-11-23T20:08:45.123Z,16.48
2022-11-23T20:11:15.369Z,16.05
2022-11-23T20:13:44.682Z,14.75
2022-11-23T20:16:14.747Z,11.18
2022-11-23T20:18:43.822Z,17.52
2022-11-23T20:21:13.124Z,16.35
2022-11-23T20:23:43.920Z,11.73
2022-11-23T20:26:14.863Z,16.40
2022-11-23T20:28:43.412Z,14.35
2022-11-23T20:31:20.009Z,15.80
2022-11-23T20:33:50.519Z,19.00
2022-11-23T20:36:20.537Z,18.58
2022-11-23T20:38:50.777Z,17.45
2022-11-23T20:41:21.516Z,13.57
2022-11-23T20:43:50.833Z,10.25
2022-11-23T20:46:38.174Z,13.65
2022-11-23T20:49:07.713Z,11.73
2022-11-23T20:51:36.424Z,9.82
2022-11-23T20:54:06.359Z,11.30
2022-11-23T20:56:34.704Z,18.75
2022-11-23T20:59:04.836Z,19.10
2022-11-23T21:01:33.445Z,13.13
2022-11-23T21:04:01.789Z,22.70
2022-11-23T21:06:34.437Z,18.48
2022-11-23T21:09:07.048Z,18.73
2022-11-23T21:11:52.733Z,14.82
2022-11-23T21:14:23.302Z,14.55
2022-11-23T21:16:55.356Z,14.93
2022-11-23T21:19:25.060Z,21.30
2022-11-23T21:21:53.796Z,13.88
2022-11-23T21:24:23.720Z,9.05
2022-11-23T21:26:52.250Z,11.40
2022-11-23T21:29:20.718Z,10.13
2022-11-23T21:31:49.957Z,11.23
2022-11-23T21:34:20.244Z,11.82
2022-11-23T21:36:49.327Z,13.45
2022-11-23T21:39:18.331Z,10.45
2022-11-23T21:41:50.830Z,13.13
2022-11-23T21:44:19.336Z,9.77
2022-11-23T21:46:47.775Z,6.20
2022-11-23T21:49:16.193Z,9.25
2022-11-23T21:51:45.748Z,9.30
2022-11-23T21:54:16.002Z,9.25
2022-11-23T21:56:45.404Z,5.93
2022-11-23T21:59:15.265Z,9.75
2022-11-23T22:01:43.874Z,9.45
2022-11-23T22:04:13.417Z,11.60
2022-11-23T22:06:44.525Z,11.77
2022-11-23T22:09:13.416Z,6.47
2022-11-23T22:11:43.260Z,8.68
2022-11-23T22:14:12.974Z,11.45
2022-11-23T22:16:44.190Z,7.53
2022-11-23T22:19:13.724Z,14.32
2022-11-23T22:21:43.042Z,10.98
2022-11-23T22:24:13.571Z,9.57
2022-11-23T22:26:42.017Z,6.15
2022-11-23T22:29:10.979Z,9.73
2022-11-23T22:31:39.906Z,10.10
2022-11-23T22:34:12.457Z,10.98
2022-11-23T22:36:41.323Z,8.35
2022-11-23T22:39:10.067Z,9.93
2022-11-23T22:41:39.021Z,13.40
2022-11-23T22:44:09.041Z,15.77
2022-11-23T22:46:37.869Z,13.77
2022-11-23T22:49:06.540Z,12.35
2022-11-23T22:51:36.329Z,15.23
2022-11-23T22:54:05.219Z,12.57
2022-11-23T22:56:33.599Z,10.48
2022-11-23T22:59:02.032Z,11.65
2022-11-23T23:01:31.872Z,12.35
2022-11-23T23:04:02.520Z,15.35
2022-11-23T23:06:33.785Z,16.25
2022-11-23T23:09:05.120Z,16.13
2022-11-23T23:11:34.564Z,19.98
2022-11-23T23:14:03.128Z,7.78
2022-11-23T23:16:31.624Z,10.73
2022-11-23T23:19:00.626Z,9.30
2022-11-23T23:21:30.323Z,13.02
2022-11-23T23:24:00.449Z,11.43
2022-11-23T23:26:30.563Z,14.75
2022-11-23T23:29:00.483Z,15.63
2022-11-23T23:31:30.056Z,14.20
2022-11-23T23:33:59.772Z,11.60
2022-11-23T23:36:28.228Z,14.35
2022-11-23T23:38:57.753Z,11.52
2022-11-23T23:41:26.146Z,9.57
2022-11-23T23:43:55.974Z,13.10
2022-11-23T23:46:24.317Z,10.52
2022-11-23T23:48:52.933Z,11.63
2022-11-23T23:51:22.913Z,12.57
2022-11-23T23:53:52.143Z,12.02
2022-11-23T23:56:22.165Z,12.35
2022-11-23T23:58:50.712Z,13.48
